sensor_id;sensor_type;location;lat;lon;timestamp;P1;durP1;ratioP1;P2;durP2;ratioP2
9388;SDS011;4734;52.778;6.798;2023-07-29T00:00:34;8.05;;;7.25;;
9388;SDS011;4734;52.778;6.798;2023-07-29T00:03:20;7.47;;;6.85;;
9388;SDS011;4734;52.778;6.798;2023-07-29T00:06:06;6.78;;;6.10;;
9388;SDS011;4734;52.778;6.798;2023-07-29T00:08:52;9.25;;;8.35;;
9388;SDS011;4734;52.778;6.798;2023-07-29T00:11:39;12.15;;;9.88;;
9388;SDS011;4734;52.778;6.798;2023-07-29T00:14:24;10.38;;;9.27;;
9388;SDS011;4734;52.778;6.798;2023-07-29T00:17:09;11.60;;;10.20;;
9388;SDS011;4734;52.778;6.798;2023-07-29T00:19:55;11.70;;;10.10;;
9388;SDS011;4734;52.778;6.798;2023-07-29T00:22:41;10.93;;;9.85;;
9388;SDS011;4734;52.778;6.798;2023-07-29T00:25:26;11.95;;;10.95;;
9388;SDS011;4734;52.778;6.798;2023-07-29T00:28:13;11.77;;;10.68;;
9388;SDS011;4734;52.778;6.798;2023-07-29T00:30:59;14.00;;;10.68;;
9388;SDS011;4734;52.778;6.798;2023-07-29T00:33:44;11.13;;;10.00;;
9388;SDS011;4734;52.778;6.798;2023-07-29T00:36:30;10.98;;;9.88;;
9388;SDS011;4734;52.778;6.798;2023-07-29T00:39:16;11.57;;;10.38;;
9388;SDS011;4734;52.778;6.798;2023-07-29T00:42:03;11.60;;;10.48;;
9388;SDS011;4734;52.778;6.798;2023-07-29T00:44:50;11.30;;;10.30;;
9388;SDS011;4734;52.778;6.798;2023-07-29T00:47:35;10.52;;;9.52;;
9388;SDS011;4734;52.778;6.798;2023-07-29T00:50:21;10.90;;;9.82;;
9388;SDS011;4734;52.778;6.798;2023-07-29T00:53:07;10.82;;;9.75;;
9388;SDS011;4734;52.778;6.798;2023-07-29T00:55:52;10.38;;;9.32;;
9388;SDS011;4734;52.778;6.798;2023-07-29T00:58:38;10.90;;;9.88;;
9388;SDS011;4734;52.778;6.798;2023-07-29T01:01:25;10.02;;;9.05;;
9388;SDS011;4734;52.778;6.798;2023-07-29T01:04:11;9.82;;;8.93;;
9388;SDS011;4734;52.778;6.798;2023-07-29T01:06:58;10.35;;;9.27;;
9388;SDS011;4734;52.778;6.798;2023-07-29T01:09:54;9.77;;;8.60;;
9388;SDS011;4734;52.778;6.798;2023-07-29T01:12:46;9.43;;;8.45;;
9388;SDS011;4734;52.778;6.798;2023-07-29T01:15:39;8.75;;;7.85;;
9388;SDS011;4734;52.778;6.798;2023-07-29T01:18:32;9.55;;;8.50;;
9388;SDS011;4734;52.778;6.798;2023-07-29T01:21:20;9.35;;;8.55;;
9388;SDS011;4734;52.778;6.798;2023-07-29T01:24:08;9.23;;;8.35;;
9388;SDS011;4734;52.778;6.798;2023-07-29T01:26:53;8.95;;;8.15;;
9388;SDS011;4734;52.778;6.798;2023-07-29T01:29:39;8.32;;;7.60;;
9388;SDS011;4734;52.778;6.798;2023-07-29T01:32:25;10.18;;;7.97;;
9388;SDS011;4734;52.778;6.798;2023-07-29T01:35:15;8.88;;;8.05;;
9388;SDS011;4734;52.778;6.798;2023-07-29T01:38:06;8.02;;;7.22;;
9388;SDS011;4734;52.778;6.798;2023-07-29T01:41:06;8.65;;;7.78;;
9388;SDS011;4734;52.778;6.798;2023-07-29T01:43:53;8.02;;;6.82;;
9388;SDS011;4734;52.778;6.798;2023-07-29T01:46:39;7.90;;;7.10;;
9388;SDS011;4734;52.778;6.798;2023-07-29T01:49:25;8.60;;;7.90;;
9388;SDS011;4734;52.778;6.798;2023-07-29T01:52:10;8.07;;;7.28;;
9388;SDS011;4734;52.778;6.798;2023-07-29T01:54:56;8.18;;;7.15;;
9388;SDS011;4734;52.778;6.798;2023-07-29T01:57:43;7.88;;;7.18;;
9388;SDS011;4734;52.778;6.798;2023-07-29T02:00:28;7.95;;;7.15;;
9388;SDS011;4734;52.778;6.798;2023-07-29T02:03:14;7.60;;;6.82;;
9388;SDS011;4734;52.778;6.798;2023-07-29T02:06:00;7.60;;;6.88;;
9388;SDS011;4734;52.778;6.798;2023-07-29T02:08:45;8.20;;;7.50;;
9388;SDS011;4734;52.778;6.798;2023-07-29T02:11:31;8.20;;;7.43;;
9388;SDS011;4734;52.778;6.798;2023-07-29T02:14:18;8.60;;;6.90;;
9388;SDS011;4734;52.778;6.798;2023-07-29T02:17:03;7.25;;;6.65;;
9388;SDS011;4734;52.778;6.798;2023-07-29T02:19:49;7.25;;;6.55;;
9388;SDS011;4734;52.778;6.798;2023-07-29T02:22:35;8.10;;;7.40;;
9388;SDS011;4734;52.778;6.798;2023-07-29T02:25:21;8.43;;;7.50;;
9388;SDS011;4734;52.778;6.798;2023-07-29T02:28:06;8.25;;;7.47;;
9388;SDS011;4734;52.778;6.798;2023-07-29T02:31:13;8.60;;;7.80;;
9388;SDS011;4734;52.778;6.798;2023-07-29T02:34:00;7.78;;;7.07;;
9388;SDS011;4734;52.778;6.798;2023-07-29T02:36:46;7.95;;;7.15;;
9388;SDS011;4734;52.778;6.798;2023-07-29T02:39:32;6.85;;;6.25;;
9388;SDS011;4734;52.778;6.798;2023-07-29T02:42:18;7.35;;;6.63;;
9388;SDS011;4734;52.778;6.798;2023-07-29T02:45:03;7.22;;;6.53;;
9388;SDS011;4734;52.778;6.798;2023-07-29T02:47:54;8.32;;;6.07;;
9388;SDS011;4734;52.778;6.798;2023-07-29T02:50:39;6.53;;;6.03;;
9388;SDS011;4734;52.778;6.798;2023-07-29T02:53:25;6.50;;;6.00;;
9388;SDS011;4734;52.778;6.798;2023-07-29T02:56:10;6.45;;;5.45;;
9388;SDS011;4734;52.778;6.798;2023-07-29T02:58:56;5.95;;;5.45;;
9388;SDS011;4734;52.778;6.798;2023-07-29T03:01:42;5.93;;;5.43;;
9388;SDS011;4734;52.778;6.798;2023-07-29T03:04:28;6.45;;;5.70;;
9388;SDS011;4734;52.778;6.798;2023-07-29T03:07:14;5.68;;;5.25;;
9388;SDS011;4734;52.778;6.798;2023-07-29T03:10:00;7.68;;;5.35;;
9388;SDS011;4734;52.778;6.798;2023-07-29T03:12:46;5.93;;;5.43;;
9388;SDS011;4734;52.778;6.798;2023-07-29T03:15:31;5.75;;;5.25;;
9388;SDS011;4734;52.778;6.798;2023-07-29T03:18:17;5.40;;;5.00;;
9388;SDS011;4734;52.778;6.798;2023-07-29T03:21:04;5.60;;;5.10;;
9388;SDS011;4734;52.778;6.798;2023-07-29T03:23:49;5.32;;;4.82;;
9388;SDS011;4734;52.778;6.798;2023-07-29T03:26:35;5.55;;;5.05;;
9388;SDS011;4734;52.778;6.798;2023-07-29T03:29:21;5.80;;;5.30;;
9388;SDS011;4734;52.778;6.798;2023-07-29T03:32:06;5.43;;;4.60;;
9388;SDS011;4734;52.778;6.798;2023-07-29T03:34:52;6.05;;;4.90;;
9388;SDS011;4734;52.778;6.798;2023-07-29T03:37:39;4.97;;;4.57;;
9388;SDS011;4734;52.778;6.798;2023-07-29T03:40:25;4.70;;;4.03;;
9388;SDS011;4734;52.778;6.798;2023-07-29T03:43:10;4.32;;;4.00;;
9388;SDS011;4734;52.778;6.798;2023-07-29T03:45:56;4.88;;;4.20;;
9388;SDS011;4734;52.778;6.798;2023-07-29T03:48:42;4.45;;;3.70;;
9388;SDS011;4734;52.778;6.798;2023-07-29T03:51:27;5.25;;;3.97;;
9388;SDS011;4734;52.778;6.798;2023-07-29T03:54:15;4.10;;;3.60;;
9388;SDS011;4734;52.778;6.798;2023-07-29T03:57:00;4.03;;;3.70;;
9388;SDS011;4734;52.778;6.798;2023-07-29T03:59:46;3.97;;;3.67;;
9388;SDS011;4734;52.778;6.798;2023-07-29T04:02:31;4.35;;;3.75;;
9388;SDS011;4734;52.778;6.798;2023-07-29T04:05:17;3.80;;;3.50;;
9388;SDS011;4734;52.778;6.798;2023-07-29T04:08:03;3.88;;;3.38;;
9388;SDS011;4734;52.778;6.798;2023-07-29T04:10:50;4.03;;;3.67;;
9388;SDS011;4734;52.778;6.798;2023-07-29T04:13:35;4.85;;;3.78;;
9388;SDS011;4734;52.778;6.798;2023-07-29T04:16:22;3.72;;;3.40;;
9388;SDS011;4734;52.778;6.798;2023-07-29T04:19:08;6.57;;;3.95;;
9388;SDS011;4734;52.778;6.798;2023-07-29T04:21:53;3.72;;;3.42;;
9388;SDS011;4734;52.778;6.798;2023-07-29T04:24:39;3.80;;;3.40;;
9388;SDS011;4734;52.778;6.798;2023-07-29T04:27:26;4.53;;;4.13;;
9388;SDS011;4734;52.778;6.798;2023-07-29T04:30:11;3.78;;;3.35;;
9388;SDS011;4734;52.778;6.798;2023-07-29T04:32:57;4.10;;;3.75;;
9388;SDS011;4734;52.778;6.798;2023-07-29T04:35:43;3.78;;;3.38;;
9388;SDS011;4734;52.778;6.798;2023-07-29T04:38:30;3.70;;;3.40;;
9388;SDS011;4734;52.778;6.798;2023-07-29T04:41:16;5.38;;;3.45;;
9388;SDS011;4734;52.778;6.798;2023-07-29T04:44:03;3.47;;;3.03;;
9388;SDS011;4734;52.778;6.798;2023-07-29T04:46:49;3.67;;;3.20;;
9388;SDS011;4734;52.778;6.798;2023-07-29T04:49:34;3.38;;;2.65;;
9388;SDS011;4734;52.778;6.798;2023-07-29T04:52:20;3.47;;;2.80;;
9388;SDS011;4734;52.778;6.798;2023-07-29T04:55:06;3.22;;;3.03;;
9388;SDS011;4734;52.778;6.798;2023-07-29T04:57:51;3.85;;;3.08;;
9388;SDS011;4734;52.778;6.798;2023-07-29T05:00:38;3.67;;;2.80;;
9388;SDS011;4734;52.778;6.798;2023-07-29T05:03:24;3.90;;;2.53;;
9388;SDS011;4734;52.778;6.798;2023-07-29T05:06:10;2.70;;;2.50;;
9388;SDS011;4734;52.778;6.798;2023-07-29T05:08:56;2.60;;;2.40;;
9388;SDS011;4734;52.778;6.798;2023-07-29T05:11:42;2.80;;;2.60;;
9388;SDS011;4734;52.778;6.798;2023-07-29T05:14:29;3.70;;;2.90;;
9388;SDS011;4734;52.778;6.798;2023-07-29T05:17:16;3.80;;;2.78;;
9388;SDS011;4734;52.778;6.798;2023-07-29T05:20:01;5.30;;;3.25;;
9388;SDS011;4734;52.778;6.798;2023-07-29T05:22:47;4.63;;;3.00;;
9388;SDS011;4734;52.778;6.798;2023-07-29T05:25:33;3.08;;;2.80;;
9388;SDS011;4734;52.778;6.798;2023-07-29T05:28:19;3.60;;;2.70;;
9388;SDS011;4734;52.778;6.798;2023-07-29T05:31:05;4.40;;;2.75;;
9388;SDS011;4734;52.778;6.798;2023-07-29T05:33:52;3.22;;;2.85;;
9388;SDS011;4734;52.778;6.798;2023-07-29T05:36:37;3.20;;;2.97;;
9388;SDS011;4734;52.778;6.798;2023-07-29T05:39:24;3.53;;;3.10;;
9388;SDS011;4734;52.778;6.798;2023-07-29T05:42:09;3.92;;;3.20;;
9388;SDS011;4734;52.778;6.798;2023-07-29T05:44:55;4.38;;;3.60;;
9388;SDS011;4734;52.778;6.798;2023-07-29T05:47:41;4.30;;;3.22;;
9388;SDS011;4734;52.778;6.798;2023-07-29T05:50:28;4.03;;;3.25;;
9388;SDS011;4734;52.778;6.798;2023-07-29T05:53:14;5.03;;;3.08;;
9388;SDS011;4734;52.778;6.798;2023-07-29T05:55:59;3.60;;;3.25;;
9388;SDS011;4734;52.778;6.798;2023-07-29T05:58:45;3.97;;;3.60;;
9388;SDS011;4734;52.778;6.798;2023-07-29T06:01:30;6.22;;;3.30;;
9388;SDS011;4734;52.778;6.798;2023-07-29T06:04:16;4.63;;;4.22;;
9388;SDS011;4734;52.778;6.798;2023-07-29T06:07:03;4.63;;;4.10;;
9388;SDS011;4734;52.778;6.798;2023-07-29T06:09:49;4.60;;;4.20;;
9388;SDS011;4734;52.778;6.798;2023-07-29T06:12:37;4.90;;;4.25;;
9388;SDS011;4734;52.778;6.798;2023-07-29T06:15:22;6.35;;;4.30;;
9388;SDS011;4734;52.778;6.798;2023-07-29T06:18:08;5.43;;;4.30;;
9388;SDS011;4734;52.778;6.798;2023-07-29T06:20:54;7.55;;;4.97;;
9388;SDS011;4734;52.778;6.798;2023-07-29T06:23:41;5.03;;;4.53;;
9388;SDS011;4734;52.778;6.798;2023-07-29T06:26:27;5.18;;;4.65;;
9388;SDS011;4734;52.778;6.798;2023-07-29T06:29:13;6.53;;;4.70;;
9388;SDS011;4734;52.778;6.798;2023-07-29T06:31:59;5.85;;;4.88;;
9388;SDS011;4734;52.778;6.798;2023-07-29T06:34:44;4.95;;;4.45;;
9388;SDS011;4734;52.778;6.798;2023-07-29T06:37:30;6.25;;;4.93;;
9388;SDS011;4734;52.778;6.798;2023-07-29T06:40:18;6.07;;;4.45;;
9388;SDS011;4734;52.778;6.798;2023-07-29T06:43:03;5.30;;;4.80;;
9388;SDS011;4734;52.778;6.798;2023-07-29T06:45:49;5.82;;;5.22;;
9388;SDS011;4734;52.778;6.798;2023-07-29T06:48:36;7.75;;;5.20;;
9388;SDS011;4734;52.778;6.798;2023-07-29T06:51:21;6.80;;;5.03;;
9388;SDS011;4734;52.778;6.798;2023-07-29T06:54:07;5.22;;;4.72;;
9388;SDS011;4734;52.778;6.798;2023-07-29T06:56:54;8.57;;;4.75;;
9388;SDS011;4734;52.778;6.798;2023-07-29T06:59:39;7.97;;;5.68;;
9388;SDS011;4734;52.778;6.798;2023-07-29T07:02:25;6.90;;;5.07;;
9388;SDS011;4734;52.778;6.798;2023-07-29T07:05:11;6.60;;;4.90;;
9388;SDS011;4734;52.778;6.798;2023-07-29T07:07:56;7.93;;;5.35;;
9388;SDS011;4734;52.778;6.798;2023-07-29T07:10:42;6.40;;;5.15;;
9388;SDS011;4734;52.778;6.798;2023-07-29T07:13:29;7.22;;;4.90;;
9388;SDS011;4734;52.778;6.798;2023-07-29T07:16:14;8.43;;;5.28;;
9388;SDS011;4734;52.778;6.798;2023-07-29T07:19:00;7.88;;;5.32;;
9388;SDS011;4734;52.778;6.798;2023-07-29T07:21:45;6.25;;;5.55;;
9388;SDS011;4734;52.778;6.798;2023-07-29T07:24:31;6.25;;;5.65;;
9388;SDS011;4734;52.778;6.798;2023-07-29T07:27:17;6.80;;;6.10;;
9388;SDS011;4734;52.778;6.798;2023-07-29T07:30:05;6.82;;;5.82;;
9388;SDS011;4734;52.778;6.798;2023-07-29T07:32:51;6.65;;;5.45;;
9388;SDS011;4734;52.778;6.798;2023-07-29T07:35:36;6.68;;;5.60;;
9388;SDS011;4734;52.778;6.798;2023-07-29T07:38:23;7.13;;;5.22;;
9388;SDS011;4734;52.778;6.798;2023-07-29T07:41:08;6.07;;;5.47;;
9388;SDS011;4734;52.778;6.798;2023-07-29T07:43:54;5.55;;;5.00;;
9388;SDS011;4734;52.778;6.798;2023-07-29T07:46:42;6.88;;;4.82;;
9388;SDS011;4734;52.778;6.798;2023-07-29T07:49:27;6.15;;;5.28;;
9388;SDS011;4734;52.778;6.798;2023-07-29T07:52:13;6.15;;;5.55;;
9388;SDS011;4734;52.778;6.798;2023-07-29T07:54:59;4.88;;;4.45;;
9388;SDS011;4734;52.778;6.798;2023-07-29T07:57:45;7.32;;;4.65;;
9388;SDS011;4734;52.778;6.798;2023-07-29T08:00:30;6.70;;;4.50;;
9388;SDS011;4734;52.778;6.798;2023-07-29T08:03:18;6.00;;;4.00;;
9388;SDS011;4734;52.778;6.798;2023-07-29T08:06:03;4.75;;;3.78;;
9388;SDS011;4734;52.778;6.798;2023-07-29T08:08:49;4.20;;;3.50;;
9388;SDS011;4734;52.778;6.798;2023-07-29T08:11:34;4.43;;;3.67;;
9388;SDS011;4734;52.778;6.798;2023-07-29T08:14:20;4.00;;;3.58;;
9388;SDS011;4734;52.778;6.798;2023-07-29T08:17:06;3.67;;;3.30;;
9388;SDS011;4734;52.778;6.798;2023-07-29T08:19:53;6.55;;;3.45;;
9388;SDS011;4734;52.778;6.798;2023-07-29T08:22:38;3.70;;;3.30;;
9388;SDS011;4734;52.778;6.798;2023-07-29T08:25:24;8.35;;;3.47;;
9388;SDS011;4734;52.778;6.798;2023-07-29T08:28:09;4.15;;;3.00;;
9388;SDS011;4734;52.778;6.798;2023-07-29T08:30:55;4.45;;;2.97;;
9388;SDS011;4734;52.778;6.798;2023-07-29T08:33:41;5.55;;;3.13;;
9388;SDS011;4734;52.778;6.798;2023-07-29T08:36:28;3.25;;;2.90;;
9388;SDS011;4734;52.778;6.798;2023-07-29T08:39:13;5.22;;;3.05;;
9388;SDS011;4734;52.778;6.798;2023-07-29T08:42:00;3.08;;;2.80;;
9388;SDS011;4734;52.778;6.798;2023-07-29T08:44:49;3.25;;;2.85;;
9388;SDS011;4734;52.778;6.798;2023-07-29T08:47:36;5.28;;;3.10;;
9388;SDS011;4734;52.778;6.798;2023-07-29T08:50:21;3.53;;;2.90;;
9388;SDS011;4734;52.778;6.798;2023-07-29T08:53:09;4.35;;;3.05;;
9388;SDS011;4734;52.778;6.798;2023-07-29T08:55:55;4.15;;;3.00;;
9388;SDS011;4734;52.778;6.798;2023-07-29T08:58:41;5.60;;;3.03;;
9388;SDS011;4734;52.778;6.798;2023-07-29T09:01:27;3.83;;;2.92;;
9388;SDS011;4734;52.778;6.798;2023-07-29T09:04:14;5.10;;;3.38;;
9388;SDS011;4734;52.778;6.798;2023-07-29T09:07:01;3.60;;;2.80;;
9388;SDS011;4734;52.778;6.798;2023-07-29T09:09:48;4.13;;;2.67;;
9388;SDS011;4734;52.778;6.798;2023-07-29T09:12:34;4.03;;;2.60;;
9388;SDS011;4734;52.778;6.798;2023-07-29T09:15:26;3.72;;;2.35;;
9388;SDS011;4734;52.778;6.798;2023-07-29T09:18:14;3.42;;;2.60;;
9388;SDS011;4734;52.778;6.798;2023-07-29T09:21:01;2.95;;;2.40;;
9388;SDS011;4734;52.778;6.798;2023-07-29T09:23:47;2.38;;;2.10;;
9388;SDS011;4734;52.778;6.798;2023-07-29T09:26:36;2.95;;;2.10;;
9388;SDS011;4734;52.778;6.798;2023-07-29T09:29:22;3.65;;;2.17;;
9388;SDS011;4734;52.778;6.798;2023-07-29T09:32:18;2.22;;;2.03;;
9388;SDS011;4734;52.778;6.798;2023-07-29T09:35:05;2.58;;;2.00;;
9388;SDS011;4734;52.778;6.798;2023-07-29T09:37:56;2.28;;;2.03;;
9388;SDS011;4734;52.778;6.798;2023-07-29T09:40:41;2.33;;;2.10;;
9388;SDS011;4734;52.778;6.798;2023-07-29T09:43:30;2.83;;;2.00;;
9388;SDS011;4734;52.778;6.798;2023-07-29T09:46:16;2.85;;;1.77;;
9388;SDS011;4734;52.778;6.798;2023-07-29T09:49:02;2.70;;;1.73;;
9388;SDS011;4734;52.778;6.798;2023-07-29T09:51:48;2.97;;;1.67;;
9388;SDS011;4734;52.778;6.798;2023-07-29T09:54:35;3.88;;;1.75;;
9388;SDS011;4734;52.778;6.798;2023-07-29T09:57:21;1.77;;;1.60;;
9388;SDS011;4734;52.778;6.798;2023-07-29T10:00:10;3.33;;;1.70;;
9388;SDS011;4734;52.778;6.798;2023-07-29T10:02:56;2.13;;;1.83;;
9388;SDS011;4734;52.778;6.798;2023-07-29T10:05:42;3.92;;;1.63;;
9388;SDS011;4734;52.778;6.798;2023-07-29T10:08:29;2.60;;;1.48;;
9388;SDS011;4734;52.778;6.798;2023-07-29T10:11:16;1.75;;;1.65;;
9388;SDS011;4734;52.778;6.798;2023-07-29T10:14:04;2.00;;;1.80;;
9388;SDS011;4734;52.778;6.798;2023-07-29T10:16:51;2.97;;;1.70;;
9388;SDS011;4734;52.778;6.798;2023-07-29T10:19:36;2.50;;;1.83;;
9388;SDS011;4734;52.778;6.798;2023-07-29T10:22:22;2.50;;;1.77;;
9388;SDS011;4734;52.778;6.798;2023-07-29T10:25:13;2.25;;;1.75;;
9388;SDS011;4734;52.778;6.798;2023-07-29T10:28:03;2.90;;;1.85;;
9388;SDS011;4734;52.778;6.798;2023-07-29T10:30:50;1.73;;;1.60;;
9388;SDS011;4734;52.778;6.798;2023-07-29T10:33:38;2.03;;;1.55;;
9388;SDS011;4734;52.778;6.798;2023-07-29T10:36:27;1.98;;;1.50;;
9388;SDS011;4734;52.778;6.798;2023-07-29T10:39:13;2.92;;;1.88;;
9388;SDS011;4734;52.778;6.798;2023-07-29T10:41:59;2.25;;;1.90;;
9388;SDS011;4734;52.778;6.798;2023-07-29T10:44:46;2.10;;;2.00;;
9388;SDS011;4734;52.778;6.798;2023-07-29T10:47:34;3.30;;;2.30;;
9388;SDS011;4734;52.778;6.798;2023-07-29T10:50:22;2.30;;;2.10;;
9388;SDS011;4734;52.778;6.798;2023-07-29T10:53:07;3.13;;;2.22;;
9388;SDS011;4734;52.778;6.798;2023-07-29T10:55:53;2.35;;;2.20;;
9388;SDS011;4734;52.778;6.798;2023-07-29T10:58:41;2.35;;;2.13;;
9388;SDS011;4734;52.778;6.798;2023-07-29T11:01:29;2.58;;;2.38;;
9388;SDS011;4734;52.778;6.798;2023-07-29T11:04:25;6.35;;;2.53;;
9388;SDS011;4734;52.778;6.798;2023-07-29T11:07:21;2.85;;;2.65;;
9388;SDS011;4734;52.778;6.798;2023-07-29T11:10:14;3.53;;;3.13;;
9388;SDS011;4734;52.778;6.798;2023-07-29T11:13:00;4.68;;;3.10;;
9388;SDS011;4734;52.778;6.798;2023-07-29T11:15:46;4.30;;;3.00;;
9388;SDS011;4734;52.778;6.798;2023-07-29T11:18:32;3.15;;;2.90;;
9388;SDS011;4734;52.778;6.798;2023-07-29T11:21:27;3.20;;;2.90;;
9388;SDS011;4734;52.778;6.798;2023-07-29T11:24:17;2.90;;;2.70;;
9388;SDS011;4734;52.778;6.798;2023-07-29T11:27:04;2.75;;;2.55;;
9388;SDS011;4734;52.778;6.798;2023-07-29T11:29:50;3.67;;;2.67;;
9388;SDS011;4734;52.778;6.798;2023-07-29T11:32:36;4.43;;;3.00;;
9388;SDS011;4734;52.778;6.798;2023-07-29T11:35:24;4.32;;;2.70;;
9388;SDS011;4734;52.778;6.798;2023-07-29T11:38:14;2.88;;;2.38;;
9388;SDS011;4734;52.778;6.798;2023-07-29T11:41:02;2.40;;;2.20;;
9388;SDS011;4734;52.778;6.798;2023-07-29T11:43:47;2.78;;;2.58;;
9388;SDS011;4734;52.778;6.798;2023-07-29T11:46:33;2.85;;;2.45;;
9388;SDS011;4734;52.778;6.798;2023-07-29T11:49:19;4.35;;;2.67;;
9388;SDS011;4734;52.778;6.798;2023-07-29T11:52:06;3.65;;;2.60;;
9388;SDS011;4734;52.778;6.798;2023-07-29T11:54:52;4.25;;;2.80;;
9388;SDS011;4734;52.778;6.798;2023-07-29T11:57:39;2.72;;;2.53;;
9388;SDS011;4734;52.778;6.798;2023-07-29T12:00:27;3.05;;;2.47;;
9388;SDS011;4734;52.778;6.798;2023-07-29T12:03:13;2.47;;;2.25;;
9388;SDS011;4734;52.778;6.798;2023-07-29T12:06:01;2.33;;;2.03;;
9388;SDS011;4734;52.778;6.798;2023-07-29T12:08:47;3.33;;;1.80;;
9388;SDS011;4734;52.778;6.798;2023-07-29T12:11:32;1.80;;;1.70;;
9388;SDS011;4734;52.778;6.798;2023-07-29T12:14:19;2.30;;;2.00;;
9388;SDS011;4734;52.778;6.798;2023-07-29T12:17:06;2.97;;;1.92;;
9388;SDS011;4734;52.778;6.798;2023-07-29T12:19:53;1.73;;;1.63;;
9388;SDS011;4734;52.778;6.798;2023-07-29T12:22:39;2.38;;;2.10;;
9388;SDS011;4734;52.778;6.798;2023-07-29T12:25:25;2.28;;;2.08;;
9388;SDS011;4734;52.778;6.798;2023-07-29T12:28:12;2.10;;;1.90;;
9388;SDS011;4734;52.778;6.798;2023-07-29T12:30:59;3.65;;;2.17;;
9388;SDS011;4734;52.778;6.798;2023-07-29T12:33:44;2.17;;;1.98;;
9388;SDS011;4734;52.778;6.798;2023-07-29T12:36:40;1.92;;;1.80;;
9388;SDS011;4734;52.778;6.798;2023-07-29T12:39:27;4.93;;;1.98;;
9388;SDS011;4734;52.778;6.798;2023-07-29T12:42:14;2.33;;;2.10;;
9388;SDS011;4734;52.778;6.798;2023-07-29T12:45:01;2.10;;;1.90;;
9388;SDS011;4734;52.778;6.798;2023-07-29T12:47:48;4.38;;;2.17;;
9388;SDS011;4734;52.778;6.798;2023-07-29T12:50:34;2.30;;;1.67;;
9388;SDS011;4734;52.778;6.798;2023-07-29T12:53:20;3.50;;;2.03;;
9388;SDS011;4734;52.778;6.798;2023-07-29T12:56:06;2.42;;;1.90;;
9388;SDS011;4734;52.778;6.798;2023-07-29T12:58:51;2.20;;;1.80;;
9388;SDS011;4734;52.778;6.798;2023-07-29T13:01:37;3.42;;;1.77;;
9388;SDS011;4734;52.778;6.798;2023-07-29T13:04:24;4.00;;;1.88;;
9388;SDS011;4734;52.778;6.798;2023-07-29T13:07:09;2.17;;;1.77;;
9388;SDS011;4734;52.778;6.798;2023-07-29T13:09:55;2.28;;;2.05;;
9388;SDS011;4734;52.778;6.798;2023-07-29T13:12:41;5.22;;;2.28;;
9388;SDS011;4734;52.778;6.798;2023-07-29T13:15:26;3.22;;;2.10;;
9388;SDS011;4734;52.778;6.798;2023-07-29T13:18:12;2.05;;;1.80;;
9388;SDS011;4734;52.778;6.798;2023-07-29T13:20:59;2.85;;;1.88;;
9388;SDS011;4734;52.778;6.798;2023-07-29T13:23:45;2.13;;;1.85;;
9388;SDS011;4734;52.778;6.798;2023-07-29T13:26:30;4.10;;;2.13;;
9388;SDS011;4734;52.778;6.798;2023-07-29T13:29:16;2.20;;;1.83;;
9388;SDS011;4734;52.778;6.798;2023-07-29T13:32:02;4.65;;;2.30;;
9388;SDS011;4734;52.778;6.798;2023-07-29T13:34:47;4.78;;;2.20;;
9388;SDS011;4734;52.778;6.798;2023-07-29T13:37:35;3.72;;;1.95;;
9388;SDS011;4734;52.778;6.798;2023-07-29T13:40:20;2.55;;;1.83;;
9388;SDS011;4734;52.778;6.798;2023-07-29T13:43:06;3.40;;;2.22;;
9388;SDS011;4734;52.778;6.798;2023-07-29T13:45:53;3.67;;;2.15;;
9388;SDS011;4734;52.778;6.798;2023-07-29T13:48:39;3.78;;;2.30;;
9388;SDS011;4734;52.778;6.798;2023-07-29T13:51:25;3.28;;;2.22;;
9388;SDS011;4734;52.778;6.798;2023-07-29T13:54:12;2.80;;;1.98;;
9388;SDS011;4734;52.778;6.798;2023-07-29T13:56:57;3.92;;;2.10;;
9388;SDS011;4734;52.778;6.798;2023-07-29T13:59:43;1.88;;;1.60;;
9388;SDS011;4734;52.778;6.798;2023-07-29T14:02:29;1.98;;;1.60;;
9388;SDS011;4734;52.778;6.798;2023-07-29T14:05:15;3.10;;;1.60;;
9388;SDS011;4734;52.778;6.798;2023-07-29T14:08:00;2.58;;;1.20;;
9388;SDS011;4734;52.778;6.798;2023-07-29T14:10:47;2.00;;;1.50;;
9388;SDS011;4734;52.778;6.798;2023-07-29T14:13:33;1.60;;;1.48;;
9388;SDS011;4734;52.778;6.798;2023-07-29T14:16:19;1.73;;;1.30;;
9388;SDS011;4734;52.778;6.798;2023-07-29T14:19:04;1.73;;;1.20;;
9388;SDS011;4734;52.778;6.798;2023-07-29T14:21:50;1.40;;;1.00;;
9388;SDS011;4734;52.778;6.798;2023-07-29T14:24:36;1.70;;;1.40;;
9388;SDS011;4734;52.778;6.798;2023-07-29T14:27:23;1.42;;;1.33;;
9388;SDS011;4734;52.778;6.798;2023-07-29T14:30:09;1.60;;;1.50;;
9388;SDS011;4734;52.778;6.798;2023-07-29T14:32:55;1.83;;;1.58;;
9388;SDS011;4734;52.778;6.798;2023-07-29T14:35:40;2.47;;;1.50;;
9388;SDS011;4734;52.778;6.798;2023-07-29T14:38:26;2.08;;;1.40;;
9388;SDS011;4734;52.778;6.798;2023-07-29T14:41:12;1.63;;;1.30;;
9388;SDS011;4734;52.778;6.798;2023-07-29T14:43:59;4.05;;;1.48;;
9388;SDS011;4734;52.778;6.798;2023-07-29T14:46:44;1.77;;;1.50;;
9388;SDS011;4734;52.778;6.798;2023-07-29T14:49:30;1.40;;;1.30;;
9388;SDS011;4734;52.778;6.798;2023-07-29T14:52:16;1.65;;;1.30;;
9388;SDS011;4734;52.778;6.798;2023-07-29T14:55:01;1.60;;;1.50;;
9388;SDS011;4734;52.778;6.798;2023-07-29T14:57:47;1.92;;;1.73;;
9388;SDS011;4734;52.778;6.798;2023-07-29T15:00:35;3.50;;;2.63;;
9388;SDS011;4734;52.778;6.798;2023-07-29T15:03:20;4.13;;;2.38;;
9388;SDS011;4734;52.778;6.798;2023-07-29T15:06:06;3.05;;;2.15;;
9388;SDS011;4734;52.778;6.798;2023-07-29T15:08:51;4.07;;;2.00;;
9388;SDS011;4734;52.778;6.798;2023-07-29T15:11:37;2.30;;;2.03;;
9388;SDS011;4734;52.778;6.798;2023-07-29T15:14:23;2.53;;;1.80;;
9388;SDS011;4734;52.778;6.798;2023-07-29T15:17:10;2.28;;;1.67;;
9388;SDS011;4734;52.778;6.798;2023-07-29T15:19:55;2.22;;;1.60;;
9388;SDS011;4734;52.778;6.798;2023-07-29T15:22:41;1.60;;;1.50;;
9388;SDS011;4734;52.778;6.798;2023-07-29T15:25:27;1.65;;;1.55;;
9388;SDS011;4734;52.778;6.798;2023-07-29T15:28:12;1.65;;;1.42;;
9388;SDS011;4734;52.778;6.798;2023-07-29T15:30:58;2.55;;;1.90;;
9388;SDS011;4734;52.778;6.798;2023-07-29T15:33:45;1.98;;;1.60;;
9388;SDS011;4734;52.778;6.798;2023-07-29T15:36:30;3.20;;;1.85;;
9388;SDS011;4734;52.778;6.798;2023-07-29T15:39:16;2.55;;;1.80;;
9388;SDS011;4734;52.778;6.798;2023-07-29T15:42:02;1.85;;;1.75;;
9388;SDS011;4734;52.778;6.798;2023-07-29T15:44:48;1.83;;;1.73;;
9388;SDS011;4734;52.778;6.798;2023-07-29T15:47:33;2.55;;;1.98;;
9388;SDS011;4734;52.778;6.798;2023-07-29T15:50:20;3.00;;;1.85;;
9388;SDS011;4734;52.778;6.798;2023-07-29T15:53:05;2.05;;;1.77;;
9388;SDS011;4734;52.778;6.798;2023-07-29T15:55:51;2.00;;;1.80;;
9388;SDS011;4734;52.778;6.798;2023-07-29T15:58:37;1.80;;;1.70;;
9388;SDS011;4734;52.778;6.798;2023-07-29T16:01:23;2.42;;;2.22;;
9388;SDS011;4734;52.778;6.798;2023-07-29T16:04:08;2.63;;;2.22;;
9388;SDS011;4734;52.778;6.798;2023-07-29T16:06:55;2.40;;;1.80;;
9388;SDS011;4734;52.778;6.798;2023-07-29T16:09:41;1.95;;;1.50;;
9388;SDS011;4734;52.778;6.798;2023-07-29T16:12:26;3.03;;;2.00;;
9388;SDS011;4734;52.778;6.798;2023-07-29T16:15:12;2.60;;;1.73;;
9388;SDS011;4734;52.778;6.798;2023-07-29T16:17:58;1.90;;;1.40;;
9388;SDS011;4734;52.778;6.798;2023-07-29T16:20:44;3.10;;;1.70;;
9388;SDS011;4734;52.778;6.798;2023-07-29T16:23:32;2.25;;;1.50;;
9388;SDS011;4734;52.778;6.798;2023-07-29T16:26:18;3.17;;;1.50;;
9388;SDS011;4734;52.778;6.798;2023-07-29T16:29:04;1.40;;;1.30;;
9388;SDS011;4734;52.778;6.798;2023-07-29T16:31:51;3.42;;;1.30;;
9388;SDS011;4734;52.778;6.798;2023-07-29T16:34:36;1.23;;;1.10;;
9388;SDS011;4734;52.778;6.798;2023-07-29T16:37:22;1.55;;;1.40;;
9388;SDS011;4734;52.778;6.798;2023-07-29T16:40:09;1.27;;;1.17;;
9388;SDS011;4734;52.778;6.798;2023-07-29T16:42:56;2.13;;;1.60;;
9388;SDS011;4734;52.778;6.798;2023-07-29T16:45:41;1.30;;;1.20;;
9388;SDS011;4734;52.778;6.798;2023-07-29T16:48:27;1.30;;;1.20;;
9388;SDS011;4734;52.778;6.798;2023-07-29T16:51:12;1.33;;;1.23;;
9388;SDS011;4734;52.778;6.798;2023-07-29T16:53:58;0.88;;;0.88;;
9388;SDS011;4734;52.778;6.798;2023-07-29T16:56:45;1.15;;;1.05;;
9388;SDS011;4734;52.778;6.798;2023-07-29T16:59:31;1.98;;;1.17;;
9388;SDS011;4734;52.778;6.798;2023-07-29T17:02:17;1.80;;;1.27;;
9388;SDS011;4734;52.778;6.798;2023-07-29T17:05:02;1.40;;;1.20;;
9388;SDS011;4734;52.778;6.798;2023-07-29T17:07:50;1.00;;;0.95;;
9388;SDS011;4734;52.778;6.798;2023-07-29T17:10:35;1.42;;;0.93;;
9388;SDS011;4734;52.778;6.798;2023-07-29T17:13:22;2.53;;;1.30;;